Time;durP1;ratioP1;P1;durP2;ratioP2;P2;SDS_P1;SDS_P2;PMS_P1;PMS_P2;Temp;Humidity;BMP_temperature;BMP_pressure;BME280_temperature;BME280_humidity;BME280_pressure;Samples;Min_cycle;Max_cycle;Signal;HPM_P1;HPM_P2
2022/03/29 00:00:49;;;;;;;30.70;12.17;;;;;4.80;96099.00;;;;8350298;28;20264;-72
2022/03/29 00:04:52;;;;;;;27.47;11.33;;;;;4.80;96095.00;;;;8344490;28;20317;-72
2022/03/29 00:08:55;;;;;;;31.70;11.97;;;;;4.70;96095.00;;;;8346611;28;20229;-72
2022/03/29 00:13:00;;;;;;;29.20;12.40;;;;;4.60;96086.00;;;;8343738;28;20236;-72
2022/03/29 00:17:03;;;;;;;24.47;10.90;;;;;4.50;96080.00;;;;8344232;28;20228;-72
2022/03/29 00:21:06;;;;;;;29.50;11.50;;;;;4.50;96081.00;;;;8347580;28;20228;-72
2022/03/29 00:25:11;;;;;;;24.73;10.87;;;;;4.50;96074.00;;;;8342625;28;20218;-72
2022/03/29 00:29:15;;;;;;;32.27;12.70;;;;;4.60;96067.00;;;;8343084;28;20220;-72
2022/03/29 00:33:18;;;;;;;27.23;11.33;;;;;4.60;96061.00;;;;8340061;28;20240;-73
2022/03/29 00:37:21;;;;;;;26.97;11.23;;;;;4.60;96052.00;;;;8336354;28;20221;-72
2022/03/29 00:41:25;;;;;;;31.13;11.73;;;;;4.60;96052.00;;;;8343948;28;20361;-72
2022/03/29 00:45:30;;;;;;;27.83;11.57;;;;;4.70;96057.00;;;;8340406;28;20317;-72
2022/03/29 00:49:34;;;;;;;27.07;11.80;;;;;4.80;96057.00;;;;8330813;28;20222;-72
2022/03/29 00:53:38;;;;;;;28.67;11.63;;;;;4.70;96049.00;;;;8338225;28;20228;-72
2022/03/29 00:57:42;;;;;;;27.93;10.97;;;;;4.80;96043.00;;;;8342200;28;20657;-72
2022/03/29 01:01:46;;;;;;;27.63;12.10;;;;;4.80;96037.00;;;;8343811;28;20570;-72
2022/03/29 01:05:49;;;;;;;28.50;11.80;;;;;4.80;96039.00;;;;8342531;28;20277;-72
2022/03/29 01:09:52;;;;;;;28.73;12.60;;;;;4.80;96026.00;;;;8339381;28;20623;-72
2022/03/29 01:13:56;;;;;;;31.00;12.20;;;;;4.80;96004.00;;;;8335292;28;20227;-73
2022/03/29 01:18:01;;;;;;;26.70;11.13;;;;;4.80;96010.00;;;;8333505;28;20623;-73
2022/03/29 01:22:09;;;;;;;28.80;11.43;;;;;4.80;96002.00;;;;8343097;28;20287;-73
2022/03/29 01:26:13;;;;;;;25.37;11.27;;;;;4.80;95999.00;;;;8349440;28;20316;-73
2022/03/29 01:30:17;;;;;;;26.23;11.53;;;;;4.70;95996.00;;;;8347767;28;20612;-73
2022/03/29 01:34:21;;;;;;;27.47;11.67;;;;;4.80;95986.00;;;;8343203;28;21064;-73
2022/03/29 01:38:25;;;;;;;32.57;11.73;;;;;4.70;95981.00;;;;8339524;28;20668;-73
2022/03/29 01:42:28;;;;;;;35.00;12.23;;;;;4.70;95978.00;;;;8335848;28;20245;-73
2022/03/29 01:46:32;;;;;;;27.97;11.60;;;;;4.70;95974.00;;;;8335208;28;20237;-72
2022/03/29 01:50:35;;;;;;;32.17;12.43;;;;;4.60;95963.00;;;;8340082;28;20235;-72
2022/03/29 01:54:39;;;;;;;26.20;11.87;;;;;4.50;95965.00;;;;8340248;28;20697;-72
2022/03/29 01:58:42;;;;;;;30.00;12.27;;;;;4.40;95957.00;;;;8342528;28;20230;-72
2022/03/29 02:02:45;;;;;;;29.60;11.57;;;;;4.40;95950.00;;;;8338467;28;20237;-73
2022/03/29 02:06:49;;;;;;;24.93;11.13;;;;;4.30;95944.00;;;;8337810;28;20727;-73
2022/03/29 02:10:53;;;;;;;25.70;11.03;;;;;4.20;95940.00;;;;8338642;28;20238;-72
2022/03/29 02:14:56;;;;;;;26.33;11.37;;;;;4.20;95935.00;;;;8335618;28;20316;-73
2022/03/29 02:18:59;;;;;;;32.73;12.00;;;;;4.10;95931.00;;;;8342415;28;20233;-73
2022/03/29 02:23:06;;;;;;;30.70;11.17;;;;;4.00;95931.00;;;;8330398;28;20272;-73
2022/03/29 02:27:10;;;;;;;30.23;11.37;;;;;3.90;95913.00;;;;8334794;28;20235;-73
2022/03/29 02:31:14;;;;;;;26.77;11.17;;;;;3.90;95915.00;;;;8336642;28;20899;-73
2022/03/29 02:35:17;;;;;;;23.93;10.47;;;;;4.00;95911.00;;;;8344486;28;20238;-72
2022/03/29 02:39:20;;;;;;;23.50;10.43;;;;;4.10;95902.00;;;;8327190;28;20553;-73
2022/03/29 02:43:26;;;;;;;25.57;10.63;;;;;4.00;95902.00;;;;8334744;28;20235;-73
2022/03/29 02:47:29;;;;;;;30.43;11.60;;;;;3.90;95888.00;;;;8341428;28;20578;-72
2022/03/29 02:51:32;;;;;;;21.93;10.33;;;;;3.80;95890.00;;;;8340053;28;20708;-71
2022/03/29 02:55:35;;;;;;;22.20;10.43;;;;;3.90;95892.00;;;;8336255;28;20335;-72
2022/03/29 02:59:39;;;;;;;24.40;10.63;;;;;3.90;95888.00;;;;8341943;28;20237;-72
2022/03/29 03:03:43;;;;;;;22.90;11.03;;;;;3.80;95885.00;;;;8399211;22;20242;-71
2022/03/29 03:07:46;;;;;;;27.67;11.27;;;;;3.80;95878.00;;;;8376851;28;20603;-72
2022/03/29 03:11:49;;;;;;;27.80;11.33;;;;;3.80;95883.00;;;;8371864;28;20228;-73
2022/03/29 03:15:54;;;;;;;30.13;11.33;;;;;3.80;95876.00;;;;8377633;28;20238;-72
2022/03/29 03:19:57;;;;;;;26.00;11.20;;;;;3.80;95871.00;;;;8383778;28;20231;-72
2022/03/29 03:24:00;;;;;;;26.40;10.33;;;;;3.90;95877.00;;;;8386678;28;20235;-71
2022/03/29 03:28:03;;;;;;;27.33;11.77;;;;;3.90;95870.00;;;;8384729;28;20243;-72
2022/03/29 03:32:09;;;;;;;23.67;10.83;;;;;4.00;95870.00;;;;8383454;28;20295;-72
2022/03/29 03:36:12;;;;;;;24.40;11.27;;;;;4.00;95870.00;;;;8380541;28;20813;-72
2022/03/29 03:40:15;;;;;;;26.40;10.33;;;;;4.00;95872.00;;;;8381945;28;20229;-72
2022/03/29 03:44:18;;;;;;;32.57;13.40;;;;;3.90;95858.00;;;;8398295;28;20302;-72
2022/03/29 03:48:23;;;;;;;26.07;10.63;;;;;3.90;95865.00;;;;8389927;28;20227;-72
2022/03/29 03:52:27;;;;;;;25.27;11.30;;;;;3.90;95861.00;;;;8392362;28;20710;-72
2022/03/29 03:56:30;;;;;;;27.87;10.83;;;;;3.90;95849.00;;;;8385462;28;20243;-71
2022/03/29 04:00:33;;;;;;;25.47;10.90;;;;;3.80;95844.00;;;;8371512;28;20225;-73
2022/03/29 04:04:38;;;;;;;23.33;10.77;;;;;3.70;95850.00;;;;8381261;28;20230;-72
2022/03/29 04:08:41;;;;;;;29.53;11.43;;;;;3.70;95836.00;;;;8377011;28;21058;-71
2022/03/29 04:12:44;;;;;;;29.43;12.10;;;;;3.80;95841.00;;;;8377921;28;20224;-72
2022/03/29 04:16:48;;;;;;;22.83;10.40;;;;;3.70;95840.00;;;;8383234;28;20234;-71
2022/03/29 04:20:53;;;;;;;25.03;11.07;;;;;3.80;95839.00;;;;8382672;28;20252;-70
2022/03/29 04:24:56;;;;;;;31.33;11.47;;;;;3.70;95822.00;;;;8383083;28;20239;-71
2022/03/29 04:28:59;;;;;;;27.00;11.60;;;;;3.60;95831.00;;;;8384824;28;20687;-71
2022/03/29 04:33:02;;;;;;;28.00;11.17;;;;;3.50;95831.00;;;;8391307;28;20223;-72
2022/03/29 04:37:07;;;;;;;30.53;12.13;;;;;3.50;95828.00;;;;8394154;28;20235;-72
2022/03/29 04:41:10;;;;;;;28.23;12.07;;;;;3.60;95823.00;;;;8395441;28;20313;-72
2022/03/29 04:45:14;;;;;;;27.27;10.73;;;;;3.60;95826.00;;;;8399176;28;20237;-73
2022/03/29 04:49:17;;;;;;;26.63;11.43;;;;;3.60;95818.00;;;;8391564;28;20342;-72
2022/03/29 04:53:21;;;;;;;22.63;10.70;;;;;3.60;95818.00;;;;8390316;28;20231;-72
2022/03/29 04:57:24;;;;;;;24.37;11.50;;;;;3.60;95816.00;;;;8387929;28;20896;-72
2022/03/29 05:01:28;;;;;;;30.83;12.93;;;;;3.60;95819.00;;;;8391328;28;20236;-72
2022/03/29 05:05:31;;;;;;;24.63;10.10;;;;;3.50;95816.00;;;;8387844;28;20829;-72
2022/03/29 05:09:35;;;;;;;28.20;11.97;;;;;3.50;95809.00;;;;8388445;28;20228;-72
2022/03/29 05:13:38;;;;;;;31.93;11.83;;;;;3.50;95807.00;;;;8394178;28;20221;-72
2022/03/29 05:17:42;;;;;;;29.17;12.20;;;;;3.40;95803.00;;;;8397249;28;20216;-72
2022/03/29 05:21:46;;;;;;;34.67;11.77;;;;;3.40;95796.00;;;;8396598;28;20894;-71
2022/03/29 05:25:50;;;;;;;32.83;12.10;;;;;3.50;95799.00;;;;8399600;28;20545;-72
2022/03/29 05:29:54;;;;;;;29.33;10.60;;;;;3.60;95805.00;;;;8408956;28;20242;-72
2022/03/29 05:33:57;;;;;;;22.13;11.23;;;;;3.70;95805.00;;;;8392064;28;20240;-71
2022/03/29 05:38:03;;;;;;;31.27;11.73;;;;;3.80;95803.00;;;;8395838;28;20255;-71
2022/03/29 05:42:08;;;;;;;25.40;11.90;;;;;3.90;95792.00;;;;8394606;28;20223;-72
2022/03/29 05:50:32;;;;;;;22.90;9.90;;;;;4.10;95796.00;;;;8382382;28;20652;-73
2022/03/29 05:54:36;;;;;;;27.83;10.90;;;;;4.20;95793.00;;;;8389915;28;20236;-71
2022/03/29 05:58:40;;;;;;;27.67;11.50;;;;;4.30;95802.00;;;;8385081;28;20313;-71
2022/03/29 06:02:43;;;;;;;26.13;10.67;;;;;4.50;95795.00;;;;8390015;28;20249;-71
2022/03/29 06:06:47;;;;;;;25.30;10.53;;;;;4.60;95799.00;;;;8389933;28;20234;-70
2022/03/29 06:10:50;;;;;;;22.87;10.27;;;;;4.70;95790.00;;;;8386690;28;20232;-69
2022/03/29 06:14:54;;;;;;;20.60;10.63;;;;;4.90;95804.00;;;;8388352;28;20570;-70
2022/03/29 06:18:57;;;;;;;22.60;10.43;;;;;5.20;95800.00;;;;8390213;28;20235;-69
2022/03/29 06:23:01;;;;;;;23.67;9.93;;;;;5.50;95798.00;;;;8384614;28;20218;-71
2022/03/29 06:27:04;;;;;;;21.87;10.47;;;;;5.70;95803.00;;;;8389475;28;20240;-71
2022/03/29 06:31:09;;;;;;;30.30;13.80;;;;;5.90;95804.00;;;;8389916;28;20230;-70
2022/03/29 06:35:12;;;;;;;25.03;11.90;;;;;6.20;95805.00;;;;8394897;28;20241;-71
2022/03/29 06:39:16;;;;;;;25.00;10.77;;;;;6.60;95799.00;;;;8394575;28;20322;-71
2022/03/29 06:43:19;;;;;;;25.90;12.00;;;;;6.90;95803.00;;;;8383735;28;20307;-71
2022/03/29 06:47:23;;;;;;;24.20;11.27;;;;;7.20;95804.00;;;;8401317;28;20631;-71
2022/03/29 06:51:30;;;;;;;23.47;11.33;;;;;7.50;95804.00;;;;8395958;28;20231;-72
2022/03/29 06:55:35;;;;;;;25.77;11.60;;;;;7.90;95803.00;;;;8391242;28;20234;-72
2022/03/29 06:59:38;;;;;;;24.13;11.27;;;;;8.20;95806.00;;;;8390272;28;20228;-72
2022/03/29 07:03:51;;;;;;;23.50;11.40;;;;;8.50;95804.00;;;;8391696;28;20218;-72
2022/03/29 07:07:54;;;;;;;27.53;11.17;;;;;8.80;95802.00;;;;8401219;28;20219;-72
2022/03/29 07:11:57;;;;;;;22.50;10.87;;;;;9.10;95801.00;;;;8388523;28;20306;-71
2022/03/29 07:16:00;;;;;;;26.93;11.40;;;;;9.40;95796.00;;;;8392935;28;20254;-72
2022/03/29 07:20:05;;;;;;;24.80;11.53;;;;;9.70;95800.00;;;;8383945;28;20227;-71
2022/03/29 07:24:10;;;;;;;23.60;11.67;;;;;10.00;95806.00;;;;8391405;28;20590;-72
2022/03/29 07:28:14;;;;;;;22.70;11.57;;;;;10.50;95798.00;;;;8392459;28;20229;-72
2022/03/29 07:32:18;;;;;;;22.80;11.30;;;;;10.80;95791.00;;;;8380745;28;20311;-72
2022/03/29 07:36:22;;;;;;;33.77;13.20;;;;;11.10;95802.00;;;;8392274;28;20879;-72
2022/03/29 07:40:29;;;;;;;28.03;13.00;;;;;11.40;95796.00;;;;8396168;28;20247;-72
2022/03/29 07:44:32;;;;;;;29.53;13.33;;;;;11.80;95793.00;;;;8389955;28;20234;-73
2022/03/29 07:48:36;;;;;;;28.92;12.07;;;;;12.30;95797.00;;;;8393464;28;20305;-72
2022/03/29 07:53:03;;;;;;;29.38;13.43;;;;;12.70;95790.00;;;;8388157;28;20337;-72
2022/03/29 07:57:08;;;;;;;23.88;12.10;;;;;13.20;95788.00;;;;8384272;28;20236;-72
2022/03/29 08:01:29;;;;;;;36.55;13.63;;;;;13.80;95784.00;;;;8386946;28;20228;-71
2022/03/29 08:05:33;;;;;;;26.83;13.57;;;;;14.30;95790.00;;;;8380960;28;20256;-72
2022/03/29 08:09:37;;;;;;;31.83;12.88;;;;;14.70;95791.00;;;;8392286;28;20682;-72
2022/03/29 08:13:43;;;;;;;27.65;13.00;;;;;15.10;95793.00;;;;8384619;28;20230;-72
2022/03/29 08:17:47;;;;;;;24.90;12.52;;;;;15.50;95790.00;;;;8403630;28;20225;-72
2022/03/29 08:21:50;;;;;;;27.33;12.75;;;;;15.90;95790.00;;;;8386552;28;20233;-72
2022/03/29 08:25:55;;;;;;;27.27;12.65;;;;;16.50;95784.00;;;;8395185;28;20241;-72
2022/03/29 08:29:59;;;;;;;28.50;12.70;;;;;16.80;95782.00;;;;8395987;28;20682;-72
2022/03/29 08:34:02;;;;;;;28.58;13.52;;;;;17.30;95780.00;;;;8389195;28;20569;-72
2022/03/29 08:38:06;;;;;;;31.70;13.50;;;;;17.60;95788.00;;;;8396418;28;20275;-73
2022/03/29 08:42:31;;;;;;;22.63;12.38;;;;;18.00;95769.00;;;;8396791;28;20228;-72
2022/03/29 08:46:36;;;;;;;28.55;12.73;;;;;18.30;95772.00;;;;8396091;28;20224;-73
2022/03/29 08:50:40;;;;;;;32.80;14.10;;;;;18.70;95762.00;;;;8397744;28;20664;-72
2022/03/29 08:54:43;;;;;;;29.20;13.07;;;;;19.10;95761.00;;;;8393829;28;20311;-72
2022/03/29 08:58:48;;;;;;;25.83;13.50;;;;;19.60;95766.00;;;;8391905;28;20696;-72
2022/03/29 09:02:51;;;;;;;27.95;13.60;;;;;20.00;95763.00;;;;8401792;28;20787;-73
2022/03/29 09:06:58;;;;;;;26.35;13.70;;;;;20.50;95763.00;;;;8390485;28;20945;-73
2022/03/29 09:11:02;;;;;;;35.58;15.10;;;;;20.60;95763.00;;;;8390801;28;20273;-72
2022/03/29 09:15:08;;;;;;;29.13;13.30;;;;;20.70;95758.00;;;;8389366;28;20243;-72
2022/03/29 09:19:11;;;;;;;31.50;13.18;;;;;21.20;95751.00;;;;8394585;28;20633;-72
2022/03/29 09:23:17;;;;;;;31.05;13.23;;;;;21.50;95742.00;;;;8395303;28;20228;-73
2022/03/29 09:27:20;;;;;;;26.58;13.68;;;;;21.90;95746.00;;;;8393246;28;20255;-73
2022/03/29 09:31:45;;;;;;;28.85;13.20;;;;;22.30;95734.00;;;;8392990;28;20618;-72
2022/03/29 09:36:00;;;;;;;24.70;13.95;;;;;22.80;95743.00;;;;8395151;28;20220;-72
2022/03/29 09:40:04;;;;;;;30.20;13.77;;;;;22.70;95726.00;;;;8403610;28;20219;-73
2022/03/29 09:44:10;;;;;;;26.38;13.18;;;;;22.70;95726.00;;;;8403213;28;20254;-73
2022/03/29 09:48:33;;;;;;;30.95;14.52;;;;;22.70;95726.00;;;;8393047;28;20233;-73
2022/03/29 09:52:39;;;;;;;36.67;14.18;;;;;22.90;95724.00;;;;8389960;28;20230;-73
2022/03/29 09:56:51;;;;;;;31.98;14.98;;;;;22.80;95724.00;;;;8396171;28;20237;-73
2022/03/29 10:00:59;;;;;;;31.90;13.70;;;;;23.00;95723.00;;;;8399645;28;20318;-73
2022/03/29 10:05:05;;;;;;;27.65;13.48;;;;;23.10;95717.00;;;;8386049;28;20227;-73
2022/03/29 10:09:27;;;;;;;28.27;13.80;;;;;23.30;95716.00;;;;8392777;28;20315;-72
2022/03/29 10:13:31;;;;;;;26.13;12.95;;;;;23.30;95709.00;;;;8390206;28;20685;-73
2022/03/29 10:17:34;;;;;;;28.25;13.35;;;;;23.30;95700.00;;;;8389977;28;20224;-73
2022/03/29 10:21:39;;;;;;;27.73;13.18;;;;;23.40;95685.00;;;;8388489;28;20226;-73
2022/03/29 10:25:43;;;;;;;29.92;15.32;;;;;23.60;95697.00;;;;8391925;28;20848;-72
2022/03/29 10:29:46;;;;;;;33.58;13.98;;;;;23.40;95684.00;;;;8397860;28;20230;-72
2022/03/29 10:34:10;;;;;;;35.45;14.63;;;;;23.70;95676.00;;;;8390239;28;20305;-72
2022/03/29 10:38:15;;;;;;;30.67;15.23;;;;;23.90;95684.00;;;;8387914;28;20212;-73
2022/03/29 10:42:32;;;;;;;35.47;15.30;;;;;23.70;95683.00;;;;8395734;28;20234;-73
2022/03/29 10:46:40;;;;;;;32.38;14.82;;;;;23.20;95666.00;;;;8398710;28;20989;-73
2022/03/29 10:51:00;;;;;;;31.55;14.77;;;;;23.10;95665.00;;;;8391581;28;20906;-73
2022/03/29 10:55:23;;;;;;;33.55;15.05;;;;;23.00;95664.00;;;;8390038;28;20308;-72
2022/03/29 10:59:26;;;;;;;35.45;14.52;;;;;23.00;95655.00;;;;8393309;28;20302;-71
2022/03/29 11:03:33;;;;;;;28.73;13.77;;;;;23.20;95652.00;;;;8396532;28;20726;-72
2022/03/29 11:07:38;;;;;;;31.00;15.07;;;;;23.30;95650.00;;;;8391034;28;20231;-73
2022/03/29 11:11:46;;;;;;;29.55;14.63;;;;;23.30;95647.00;;;;8385193;28;20230;-73
2022/03/29 11:15:50;;;;;;;27.08;13.63;;;;;23.30;95637.00;;;;8387812;28;20231;-73
2022/03/29 11:19:54;;;;;;;32.45;14.68;;;;;23.20;95632.00;;;;8378991;28;20227;-72
2022/03/29 11:23:59;;;;;;;28.05;14.02;;;;;23.20;95625.00;;;;8385943;28;20227;-73
2022/03/29 11:28:08;;;;;;;35.05;15.65;;;;;22.80;95627.00;;;;8383338;28;20228;-72
2022/03/29 11:32:14;;;;;;;36.67;15.07;;;;;23.00;95619.00;;;;8387860;28;20224;-72
2022/03/29 11:36:19;;;;;;;30.58;14.73;;;;;23.20;95612.00;;;;8392783;28;20664;-73
2022/03/29 11:40:23;;;;;;;24.55;13.27;;;;;23.00;95615.00;;;;8388237;28;20223;-73
2022/03/29 11:44:28;;;;;;;28.85;14.38;;;;;22.70;95610.00;;;;8395376;28;20729;-72
2022/03/29 11:48:31;;;;;;;31.20;14.57;;;;;22.40;95601.00;;;;8396102;28;20358;-73
2022/03/29 11:52:35;;;;;;;28.70;14.48;;;;;22.20;95595.00;;;;8396935;28;20672;-73
2022/03/29 11:56:39;;;;;;;28.38;13.32;;;;;22.30;95594.00;;;;8396718;28;20298;-73
2022/03/29 12:00:43;;;;;;;27.52;13.15;;;;;22.40;95584.00;;;;8404002;28;20622;-73
2022/03/29 12:04:48;;;;;;;30.98;14.05;;;;;22.50;95576.00;;;;8398257;28;20261;-73
2022/03/29 12:08:54;;;;;;;25.77;13.43;;;;;22.50;95569.00;;;;8400954;28;20223;-73
2022/03/29 12:12:57;;;;;;;32.90;14.52;;;;;22.70;95558.00;;;;8391296;28;20859;-72
2022/03/29 12:17:04;;;;;;;28.50;14.25;;;;;22.60;95561.00;;;;8402834;28;20244;-70
2022/03/29 12:21:11;;;;;;;29.75;14.65;;;;;22.60;95550.00;;;;8402061;28;20216;-72
2022/03/29 12:25:14;;;;;;;30.33;13.85;;;;;22.60;95544.00;;;;8388435;28;20940;-73
2022/03/29 12:29:20;;;;;;;29.63;14.68;;;;;22.80;95544.00;;;;8385469;28;20941;-72
2022/03/29 12:33:25;;;;;;;31.63;14.52;;;;;22.90;95536.00;;;;8387100;28;20231;-72
2022/03/29 12:37:29;;;;;;;31.27;14.27;;;;;23.20;95540.00;;;;8392057;28;20670;-73
2022/03/29 12:41:35;;;;;;;30.13;14.57;;;;;23.30;95527.00;;;;8389192;28;20223;-73
2022/03/29 12:45:40;;;;;;;32.70;14.77;;;;;23.30;95525.00;;;;8391616;28;20227;-73
2022/03/29 12:49:49;;;;;;;28.15;14.25;;;;;23.40;95514.00;;;;8385634;28;20629;-71
2022/03/29 12:53:59;;;;;;;26.40;13.65;;;;;23.40;95518.00;;;;8391812;28;20236;-72
2022/03/29 12:58:04;;;;;;;32.10;15.35;;;;;23.20;95516.00;;;;8397229;28;20235;-72
2022/03/29 13:02:14;;;;;;;26.55;13.75;;;;;22.90;95497.00;;;;8402961;28;20254;-71
2022/03/29 13:06:18;;;;;;;23.67;13.38;;;;;22.90;95489.00;;;;8388029;28;20282;-72
2022/03/29 13:10:25;;;;;;;29.77;15.10;;;;;22.90;95493.00;;;;8395487;28;20259;-72
2022/03/29 13:14:37;;;;;;;30.17;14.73;;;;;23.00;95493.00;;;;8393601;28;20232;-72
2022/03/29 13:18:49;;;;;;;31.40;15.02;;;;;23.20;95490.00;;;;8392303;28;20228;-73
2022/03/29 13:22:56;;;;;;;31.33;14.77;;;;;23.30;95482.00;;;;8395830;28;20246;-73
2022/03/29 13:27:00;;;;;;;30.67;14.18;;;;;23.40;95478.00;;;;8393223;28;20215;-72
2022/03/29 13:31:05;;;;;;;28.70;14.07;;;;;23.40;95467.00;;;;8390576;28;20228;-72
2022/03/29 13:35:10;;;;;;;33.10;15.10;;;;;23.20;95475.00;;;;8395402;28;20226;-73
2022/03/29 13:39:15;;;;;;;30.27;14.25;;;;;23.10;95463.00;;;;8405534;28;20318;-73
2022/03/29 13:43:41;;;;;;;35.60;15.15;;;;;23.30;95454.00;;;;8394969;28;20219;-74
2022/03/29 13:47:44;;;;;;;25.13;13.25;;;;;23.50;95452.00;;;;8391946;28;20238;-72
2022/03/29 13:51:47;;;;;;;31.13;15.20;;;;;23.60;95442.00;;;;8389069;28;20235;-74
2022/03/29 13:55:52;;;;;;;26.90;14.05;;;;;23.80;95434.00;;;;8396098;28;20224;-73
2022/03/29 13:59:55;;;;;;;32.65;15.88;;;;;23.60;95437.00;;;;8388602;28;20339;-73
2022/03/29 14:03:59;;;;;;;35.03;16.38;;;;;23.20;95435.00;;;;8386379;28;20597;-72
2022/03/29 14:08:02;;;;;;;32.78;16.35;;;;;22.70;95428.00;;;;8390202;28;20626;-72
2022/03/29 14:12:08;;;;;;;32.78;15.75;;;;;22.40;95424.00;;;;8381956;28;20314;-73
2022/03/29 14:16:12;;;;;;;33.13;15.82;;;;;22.20;95423.00;;;;8390060;28;20231;-72
2022/03/29 14:20:16;;;;;;;33.33;16.38;;;;;21.90;95419.00;;;;8383691;28;20232;-72
2022/03/29 14:24:19;;;;;;;37.55;17.73;;;;;22.00;95412.00;;;;8391953;28;20230;-71
2022/03/29 14:28:24;;;;;;;38.97;16.58;;;;;21.90;95411.00;;;;8388343;28;20232;-73
2022/03/29 14:32:28;;;;;;;38.10;15.65;;;;;21.60;95401.00;;;;8388824;28;20709;-73
2022/03/29 14:36:31;;;;;;;36.53;17.38;;;;;21.50;95404.00;;;;8374279;28;20807;-72
2022/03/29 14:40:34;;;;;;;39.05;16.83;;;;;21.40;95403.00;;;;8380156;28;20266;-72
2022/03/29 14:44:39;;;;;;;37.97;16.13;;;;;21.50;95390.00;;;;8387449;28;20224;-72
2022/03/29 14:48:42;;;;;;;36.28;16.25;;;;;21.40;95390.00;;;;8389650;28;20748;-72
2022/03/29 14:52:49;;;;;;;37.00;16.75;;;;;21.40;95392.00;;;;8391897;28;20272;-73
2022/03/29 14:56:53;;;;;;;36.33;17.08;;;;;21.30;95387.00;;;;8392811;28;20235;-73
2022/03/29 15:00:58;;;;;;;36.00;16.15;;;;;21.10;95383.00;;;;8387798;28;20278;-72
2022/03/29 15:05:02;;;;;;;31.20;14.45;;;;;21.10;95377.00;;;;8388944;28;20242;-72
2022/03/29 15:09:05;;;;;;;33.95;16.67;;;;;21.10;95369.00;;;;8398228;28;20239;-73
2022/03/29 15:13:09;;;;;;;35.25;16.15;;;;;20.80;95360.00;;;;8399012;28;20227;-72
2022/03/29 15:17:14;;;;;;;34.22;16.13;;;;;20.70;95364.00;;;;8388791;28;20231;-72
2022/03/29 15:21:17;;;;;;;34.83;16.55;;;;;20.70;95360.00;;;;8385652;28;20220;-71
2022/03/29 15:25:20;;;;;;;37.42;16.92;;;;;20.50;95353.00;;;;8406189;28;20336;-73
2022/03/29 15:29:23;;;;;;;34.25;16.88;;;;;20.40;95348.00;;;;8408859;28;20794;-72
2022/03/29 15:33:30;;;;;;;38.58;16.33;;;;;20.30;95347.00;;;;8395552;28;21824;-71
2022/03/29 15:37:35;;;;;;;30.40;15.18;;;;;20.30;95340.00;;;;8384108;28;20709;-73
2022/03/29 15:41:38;;;;;;;36.08;16.35;;;;;20.20;95347.00;;;;8382709;28;20232;-73
2022/03/29 15:45:44;;;;;;;37.53;17.20;;;;;20.00;95351.00;;;;8384682;28;20631;-72
2022/03/29 15:49:53;;;;;;;34.05;16.25;;;;;19.70;95346.00;;;;8385046;28;20223;-72
2022/03/29 15:53:56;;;;;;;34.15;17.80;;;;;19.40;95338.00;;;;8385772;28;20310;-72
2022/03/29 15:58:00;;;;;;;38.50;17.58;;;;;19.20;95340.00;;;;8390726;28;20235;-72
2022/03/29 16:02:09;;;;;;;31.20;16.63;;;;;19.00;95339.00;;;;8382738;28;20275;-72
2022/03/29 16:06:14;;;;;;;39.22;16.23;;;;;19.00;95342.00;;;;8390582;28;20277;-72
2022/03/29 16:10:17;;;;;;;35.78;17.15;;;;;19.00;95341.00;;;;8387760;28;20227;-71
2022/03/29 16:14:21;;;;;;;32.65;15.35;;;;;18.80;95346.00;;;;8380328;28;20223;-70
2022/03/29 16:18:24;;;;;;;33.55;15.95;;;;;18.50;95348.00;;;;8394718;28;20235;-73
2022/03/29 16:22:29;;;;;;;33.17;12.10;;;;;17.90;95374.00;;;;8391417;28;20220;-72
2022/03/29 16:26:32;;;;;;;29.00;13.07;;;;;17.00;95363.00;;;;8380586;28;20219;-73
2022/03/29 16:30:35;;;;;;;27.80;11.95;;;;;16.20;95360.00;;;;8396068;28;20356;-73
2022/03/29 16:34:39;;;;;;;27.60;11.82;;;;;15.40;95349.00;;;;8399122;28;20653;-72
2022/03/29 16:38:43;;;;;;;32.53;13.50;;;;;15.00;95341.00;;;;8401062;28;20241;-72
2022/03/29 16:42:46;;;;;;;28.85;11.82;;;;;15.00;95358.00;;;;8394542;28;20227;-72
2022/03/29 16:46:50;;;;;;;22.80;10.77;;;;;14.80;95350.00;;;;8396434;28;20226;-72
2022/03/29 16:50:53;;;;;;;31.95;12.65;;;;;14.50;95347.00;;;;8391029;28;20231;-74
2022/03/29 16:54:58;;;;;;;33.03;13.55;;;;;13.70;95332.00;;;;8389478;28;20310;-76
2022/03/29 16:59:01;;;;;;;37.20;14.23;;;;;13.30;95350.00;;;;8401610;28;20662;-77
2022/03/29 17:03:04;;;;;;;26.80;12.80;;;;;13.10;95339.00;;;;8384794;28;20340;-77
2022/03/29 17:07:08;;;;;;;37.60;14.07;;;;;13.00;95336.00;;;;8393248;28;20233;-77
2022/03/29 17:11:13;;;;;;;33.88;13.90;;;;;12.90;95339.00;;;;8395051;28;20319;-77
2022/03/29 17:15:16;;;;;;;32.53;12.35;;;;;13.00;95358.00;;;;8391445;28;20263;-77
2022/03/29 17:19:20;;;;;;;35.78;14.55;;;;;12.90;95347.00;;;;8385543;28;20221;-78
2022/03/29 17:23:23;;;;;;;40.15;16.67;;;;;12.90;95342.00;;;;8387825;28;20302;-76
2022/03/29 17:27:28;;;;;;;34.22;16.92;;;;;13.00;95327.00;;;;8390991;28;20216;-76
2022/03/29 17:31:31;;;;;;;38.05;17.38;;;;;13.10;95317.00;;;;8388580;28;20222;-77
2022/03/29 17:35:34;;;;;;;36.85;17.33;;;;;13.20;95317.00;;;;8383798;28;20230;-76
2022/03/29 17:39:38;;;;;;;38.30;18.23;;;;;13.10;95318.00;;;;8388652;28;20725;-77
2022/03/29 17:43:42;;;;;;;50.58;19.10;;;;;13.00;95311.00;;;;8389243;28;20304;-76
2022/03/29 17:47:45;;;;;;;40.40;17.50;;;;;13.10;95310.00;;;;8382741;28;20354;-76
2022/03/29 17:51:48;;;;;;;37.78;17.55;;;;;13.20;95305.00;;;;8382940;28;20229;-75
2022/03/29 17:55:52;;;;;;;40.35;19.00;;;;;13.20;95306.00;;;;8390296;28;20226;-75
2022/03/29 17:59:56;;;;;;;39.90;17.95;;;;;13.20;95303.00;;;;8399456;28;21106;-75
2022/03/29 18:03:59;;;;;;;43.00;18.65;;;;;13.20;95308.00;;;;8389812;28;20365;-74
2022/03/29 18:08:03;;;;;;;37.88;18.25;;;;;13.10;95312.00;;;;8401705;28;20247;-74
2022/03/29 18:12:07;;;;;;;39.60;18.63;;;;;13.00;95312.00;;;;8400493;28;20254;-75
2022/03/29 18:16:12;;;;;;;39.25;19.38;;;;;12.90;95307.00;;;;8389239;28;20222;-73
2022/03/29 18:20:16;;;;;;;41.13;19.48;;;;;12.70;95315.00;;;;8390766;28;20240;-73
2022/03/29 18:24:20;;;;;;;50.08;19.73;;;;;12.60;95317.00;;;;8402440;28;20600;-74
2022/03/29 18:28:23;;;;;;;35.05;16.80;;;;;12.60;95322.00;;;;8403806;28;20954;-74
2022/03/29 18:32:28;;;;;;;43.78;18.02;;;;;12.70;95318.00;;;;8388001;28;20243;-73
2022/03/29 18:36:31;;;;;;;40.72;17.38;;;;;12.70;95315.00;;;;8390068;28;20263;-72
2022/03/29 18:40:34;;;;;;;36.33;17.90;;;;;12.60;95326.00;;;;8386709;28;20388;-73
2022/03/29 18:44:37;;;;;;;38.65;17.27;;;;;12.60;95317.00;;;;8391298;28;20228;-72
2022/03/29 18:48:42;;;;;;;42.22;18.55;;;;;12.60;95318.00;;;;8397194;28;20680;-71
2022/03/29 18:52:46;;;;;;;45.20;17.88;;;;;12.50;95324.00;;;;8393873;28;20262;-71
2022/03/29 18:56:49;;;;;;;35.75;15.70;;;;;12.50;95317.00;;;;8386546;28;20223;-72
2022/03/29 19:00:52;;;;;;;38.42;15.55;;;;;12.50;95317.00;;;;8392076;28;20716;-72
2022/03/29 19:04:59;;;;;;;43.53;21.80;;;;;12.40;95312.00;;;;8394691;28;20310;-72
2022/03/29 19:09:02;;;;;;;37.13;18.80;;;;;12.30;95316.00;;;;8393919;28;20309;-72
2022/03/29 19:13:06;;;;;;;32.67;15.05;;;;;12.20;95317.00;;;;8402216;28;20225;-73
2022/03/29 19:17:09;;;;;;;36.22;17.40;;;;;12.30;95310.00;;;;8391686;28;20554;-72
2022/03/29 19:21:13;;;;;;;37.20;16.73;;;;;12.30;95319.00;;;;8383204;28;20252;-72
2022/03/29 19:25:16;;;;;;;32.77;15.83;;;;;12.30;95313.00;;;;8390613;28;20718;-72
2022/03/29 19:29:19;;;;;;;35.40;16.92;;;;;12.30;95313.00;;;;8387722;28;20285;-72
2022/03/29 19:33:23;;;;;;;29.48;15.65;;;;;12.40;95319.00;;;;8385822;28;20328;-71
2022/03/29 19:37:27;;;;;;;40.67;18.05;;;;;12.40;95315.00;;;;8391064;28;20228;-72
2022/03/29 19:41:31;;;;;;;31.20;15.85;;;;;12.40;95325.00;;;;8383959;28;20235;-71
2022/03/29 19:45:34;;;;;;;39.05;16.88;;;;;12.40;95325.00;;;;8389230;28;20239;-71
2022/03/29 19:49:37;;;;;;;34.65;16.40;;;;;12.30;95334.00;;;;8391040;28;21197;-71
2022/03/29 19:53:42;;;;;;;34.88;16.00;;;;;12.20;95324.00;;;;8396588;28;20265;-71
2022/03/29 19:57:46;;;;;;;35.95;15.75;;;;;12.20;95328.00;;;;8389431;28;20236;-71
2022/03/29 20:01:49;;;;;;;48.35;22.92;;;;;12.20;95326.00;;;;8394804;28;20219;-71
2022/03/29 20:05:53;;;;;;;47.70;20.80;;;;;12.10;95320.00;;;;8397211;28;20239;-70